sensor_id;sensor_type;location;lat;lon;timestamp;pressure;altitude;pressure_sealevel;temperature;humidity
7754;BME280;3921;42.266;23.122;2023-03-14T00:01:38;95860.66;;;5.66;54.18
7754;BME280;3921;42.266;23.122;2023-03-14T00:04:05;95382.28;;;2.82;53.92
7754;BME280;3921;42.266;23.122;2023-03-14T00:06:34;95788.56;;;5.31;54.14
7754;BME280;3921;42.266;23.122;2023-03-14T00:09:02;95401.75;;;3.03;54.31
7754;BME280;3921;42.266;23.122;2023-03-14T00:11:29;95685.84;;;4.59;54.32
7754;BME280;3921;42.266;23.122;2023-03-14T00:13:57;95770.00;;;5.16;54.93
7754;BME280;3921;42.266;23.122;2023-03-14T00:16:25;95686.78;;;4.64;54.52
7754;BME280;3921;42.266;23.122;2023-03-14T00:18:52;95726.75;;;5.12;54.62
7754;BME280;3921;42.266;23.122;2023-03-14T00:21:20;95303.13;;;2.55;54.48
7754;BME280;3921;42.266;23.122;2023-03-14T00:23:48;95267.34;;;2.44;54.38
7754;BME280;3921;42.266;23.122;2023-03-14T00:26:17;95738.81;;;5.36;54.88
7754;BME280;3921;42.266;23.122;2023-03-14T00:28:46;95490.31;;;3.79;55.00
7754;BME280;3921;42.266;23.122;2023-03-14T00:31:15;95508.78;;;3.92;54.36
7754;BME280;3921;42.266;23.122;2023-03-14T00:33:42;95401.66;;;3.37;54.90
7754;BME280;3921;42.266;23.122;2023-03-14T00:36:12;95565.44;;;4.50;54.97
7754;BME280;3921;42.266;23.122;2023-03-14T00:38:41;95247.22;;;2.30;55.01
7754;BME280;3921;42.266;23.122;2023-03-14T00:41:11;95754.72;;;5.43;55.21
7754;BME280;3921;42.266;23.122;2023-03-14T00:43:39;95353.47;;;2.87;54.48
7754;BME280;3921;42.266;23.122;2023-03-14T00:46:08;95544.38;;;4.32;54.39
7754;BME280;3921;42.266;23.122;2023-03-14T00:48:35;95479.19;;;3.62;55.39
7754;BME280;3921;42.266;23.122;2023-03-14T00:51:03;95787.97;;;5.43;55.31
7754;BME280;3921;42.266;23.122;2023-03-14T00:53:31;95500.72;;;3.63;55.60
7754;BME280;3921;42.266;23.122;2023-03-14T00:56:02;95638.13;;;4.36;54.75
7754;BME280;3921;42.266;23.122;2023-03-14T00:58:32;95868.84;;;5.57;55.70
7754;BME280;3921;42.266;23.122;2023-03-14T01:01:04;95536.94;;;3.52;56.13
7754;BME280;3921;42.266;23.122;2023-03-14T01:03:31;95615.72;;;3.95;55.76
7754;BME280;3921;42.266;23.122;2023-03-14T01:06:07;95470.06;;;3.23;55.00
7754;BME280;3921;42.266;23.122;2023-03-14T01:08:34;95527.25;;;3.64;54.93
7754;BME280;3921;42.266;23.122;2023-03-14T01:11:05;95268.38;;;2.16;54.36
7754;BME280;3921;42.266;23.122;2023-03-14T01:13:35;95567.66;;;3.94;54.41
7754;BME280;3921;42.266;23.122;2023-03-14T01:16:03;95552.34;;;3.76;54.53
7754;BME280;3921;42.266;23.122;2023-03-14T01:18:32;95496.25;;;3.46;54.68
7754;BME280;3921;42.266;23.122;2023-03-14T01:21:00;95779.31;;;5.24;55.18
7754;BME280;3921;42.266;23.122;2023-03-14T01:23:29;95666.47;;;4.42;55.30
7754;BME280;3921;42.266;23.122;2023-03-14T01:25:56;95482.53;;;3.26;55.38
7754;BME280;3921;42.266;23.122;2023-03-14T01:28:24;95753.94;;;5.01;55.14
7754;BME280;3921;42.266;23.122;2023-03-14T01:30:52;95300.28;;;2.02;55.91
7754;BME280;3921;42.266;23.122;2023-03-14T01:33:20;95535.38;;;3.57;55.84
7754;BME280;3921;42.266;23.122;2023-03-14T01:35:49;95533.41;;;3.81;55.03
7754;BME280;3921;42.266;23.122;2023-03-14T01:38:17;95436.13;;;3.22;55.54
7754;BME280;3921;42.266;23.122;2023-03-14T01:40:44;95290.56;;;2.11;55.43
7754;BME280;3921;42.266;23.122;2023-03-14T01:43:17;95538.09;;;3.67;55.41
7754;BME280;3921;42.266;23.122;2023-03-14T01:46:16;95812.13;;;5.47;56.06
7754;BME280;3921;42.266;23.122;2023-03-14T01:48:48;95519.72;;;3.61;55.74
7754;BME280;3921;42.266;23.122;2023-03-14T01:51:20;95415.38;;;3.20;55.31
7754;BME280;3921;42.266;23.122;2023-03-14T01:53:50;95461.59;;;3.53;55.34
7754;BME280;3921;42.266;23.122;2023-03-14T01:56:18;95624.34;;;4.51;55.03
7754;BME280;3921;42.266;23.122;2023-03-14T01:58:48;95476.84;;;3.30;55.33
7754;BME280;3921;42.266;23.122;2023-03-14T02:01:21;95485.03;;;3.26;56.12
7754;BME280;3921;42.266;23.122;2023-03-14T02:03:53;95461.97;;;3.32;55.21
7754;BME280;3921;42.266;23.122;2023-03-14T02:06:24;95453.56;;;3.27;55.55
7754;BME280;3921;42.266;23.122;2023-03-14T02:08:53;95382.25;;;2.80;55.38
7754;BME280;3921;42.266;23.122;2023-03-14T02:11:21;95434.59;;;3.27;55.69
7754;BME280;3921;42.266;23.122;2023-03-14T02:13:49;95687.72;;;4.67;55.60
7754;BME280;3921;42.266;23.122;2023-03-14T02:16:19;95639.72;;;3.93;56.36
7754;BME280;3921;42.266;23.122;2023-03-14T02:18:46;95285.72;;;1.81;56.91
7754;BME280;3921;42.266;23.122;2023-03-14T02:21:17;95473.47;;;2.90;56.60
7754;BME280;3921;42.266;23.122;2023-03-14T02:23:57;95405.88;;;2.64;56.59
7754;BME280;3921;42.266;23.122;2023-03-14T02:26:28;95277.06;;;1.98;56.30
7754;BME280;3921;42.266;23.122;2023-03-14T02:29:00;95664.25;;;4.17;56.13
7754;BME280;3921;42.266;23.122;2023-03-14T02:31:29;95652.19;;;4.34;56.65
7754;BME280;3921;42.266;23.122;2023-03-14T02:33:56;95671.00;;;4.21;56.80
7754;BME280;3921;42.266;23.122;2023-03-14T02:36:25;95624.44;;;4.14;56.69
7754;BME280;3921;42.266;23.122;2023-03-14T02:38:58;95638.31;;;4.06;56.92
7754;BME280;3921;42.266;23.122;2023-03-14T02:41:29;95223.81;;;1.48;56.73
7754;BME280;3921;42.266;23.122;2023-03-14T02:43:56;95440.22;;;2.84;56.77
7754;BME280;3921;42.266;23.122;2023-03-14T02:46:25;95708.94;;;4.51;56.97
7754;BME280;3921;42.266;23.122;2023-03-14T02:48:55;95536.56;;;3.35;56.82
7754;BME280;3921;42.266;23.122;2023-03-14T02:51:25;95300.03;;;1.91;57.56
7754;BME280;3921;42.266;23.122;2023-03-14T02:53:54;95602.56;;;3.61;57.49
7754;BME280;3921;42.266;23.122;2023-03-14T02:56:21;95591.50;;;3.85;56.73
7754;BME280;3921;42.266;23.122;2023-03-14T02:58:48;95199.50;;;1.31;56.89
7754;BME280;3921;42.266;23.122;2023-03-14T03:01:15;95512.25;;;3.22;57.20
7754;BME280;3921;42.266;23.122;2023-03-14T03:03:44;95454.41;;;2.89;56.71
7754;BME280;3921;42.266;23.122;2023-03-14T03:06:12;95489.03;;;2.83;56.96
7754;BME280;3921;42.266;23.122;2023-03-14T03:08:39;95428.44;;;2.40;57.00
7754;BME280;3921;42.266;23.122;2023-03-14T03:11:07;95448.66;;;2.56;57.76
7754;BME280;3921;42.266;23.122;2023-03-14T03:13:34;95694.97;;;3.81;57.82
7754;BME280;3921;42.266;23.122;2023-03-14T03:16:11;95676.88;;;3.88;57.18
7754;BME280;3921;42.266;23.122;2023-03-14T03:18:41;95366.28;;;2.00;56.79
7754;BME280;3921;42.266;23.122;2023-03-14T03:21:10;95712.97;;;4.07;57.20
7754;BME280;3921;42.266;23.122;2023-03-14T03:23:37;95768.00;;;4.22;57.61
7754;BME280;3921;42.266;23.122;2023-03-14T03:26:05;95649.22;;;3.38;58.02
7754;BME280;3921;42.266;23.122;2023-03-14T03:28:32;95655.94;;;3.42;57.34
7754;BME280;3921;42.266;23.122;2023-03-14T03:31:06;95718.84;;;3.75;57.02
7754;BME280;3921;42.266;23.122;2023-03-14T03:33:34;95543.13;;;2.98;56.79
7754;BME280;3921;42.266;23.122;2023-03-14T03:36:04;95395.25;;;2.01;57.20
7754;BME280;3921;42.266;23.122;2023-03-14T03:38:33;95679.63;;;3.63;56.72
7754;BME280;3921;42.266;23.122;2023-03-14T03:41:02;95579.75;;;3.07;57.51
7754;BME280;3921;42.266;23.122;2023-03-14T03:43:30;95491.63;;;2.55;56.82
7754;BME280;3921;42.266;23.122;2023-03-14T03:45:57;95363.53;;;1.89;56.93
7754;BME280;3921;42.266;23.122;2023-03-14T03:48:24;95653.84;;;3.59;57.22
7754;BME280;3921;42.266;23.122;2023-03-14T03:50:51;95732.00;;;4.07;57.89
7754;BME280;3921;42.266;23.122;2023-03-14T03:53:18;95212.56;;;0.94;57.09
7754;BME280;3921;42.266;23.122;2023-03-14T03:55:47;95389.66;;;1.76;57.71
7754;BME280;3921;42.266;23.122;2023-03-14T03:58:15;95724.13;;;3.88;57.47
7754;BME280;3921;42.266;23.122;2023-03-14T04:00:42;95475.50;;;2.37;57.45
7754;BME280;3921;42.266;23.122;2023-03-14T04:03:09;95671.78;;;3.47;57.82
7754;BME280;3921;42.266;23.122;2023-03-14T04:05:36;95278.66;;;1.30;57.43
7754;BME280;3921;42.266;23.122;2023-03-14T04:08:04;95596.75;;;3.26;56.76
7754;BME280;3921;42.266;23.122;2023-03-14T04:10:44;95652.88;;;3.53;57.16
7754;BME280;3921;42.266;23.122;2023-03-14T04:13:13;95247.78;;;1.16;57.10
7754;BME280;3921;42.266;23.122;2023-03-14T04:15:41;95359.75;;;2.02;56.68
7754;BME280;3921;42.266;23.122;2023-03-14T04:18:08;95549.94;;;3.05;57.77
7754;BME280;3921;42.266;23.122;2023-03-14T04:20:35;95769.22;;;4.38;57.83
7754;BME280;3921;42.266;23.122;2023-03-14T04:23:02;95471.94;;;2.61;57.59
7754;BME280;3921;42.266;23.122;2023-03-14T04:25:30;95665.22;;;3.84;57.40
7754;BME280;3921;42.266;23.122;2023-03-14T04:27:57;95187.56;;;0.84;57.07
7754;BME280;3921;42.266;23.122;2023-03-14T04:30:39;95579.44;;;3.28;57.56
7754;BME280;3921;42.266;23.122;2023-03-14T04:33:12;95682.25;;;3.69;57.99
7754;BME280;3921;42.266;23.122;2023-03-14T04:35:42;95351.81;;;1.82;56.90
7754;BME280;3921;42.266;23.122;2023-03-14T04:38:10;95327.44;;;1.66;57.91
7754;BME280;3921;42.266;23.122;2023-03-14T04:40:38;95187.53;;;0.82;57.59
7754;BME280;3921;42.266;23.122;2023-03-14T04:43:06;95369.16;;;1.82;57.54
7754;BME280;3921;42.266;23.122;2023-03-14T04:45:35;95706.50;;;3.44;58.08
7754;BME280;3921;42.266;23.122;2023-03-14T04:48:02;95690.84;;;3.49;58.08
7754;BME280;3921;42.266;23.122;2023-03-14T04:50:30;95424.59;;;1.85;58.54
7754;BME280;3921;42.266;23.122;2023-03-14T04:52:57;95302.97;;;0.83;59.02
7754;BME280;3921;42.266;23.122;2023-03-14T04:55:24;95162.78;;;0.22;58.93
7754;BME280;3921;42.266;23.122;2023-03-14T04:57:51;95676.06;;;3.20;59.23
7754;BME280;3921;42.266;23.122;2023-03-14T05:00:19;95275.75;;;0.83;59.24
7754;BME280;3921;42.266;23.122;2023-03-14T05:02:48;95423.13;;;1.62;59.03
7754;BME280;3921;42.266;23.122;2023-03-14T05:05:15;95495.81;;;1.94;59.46
7754;BME280;3921;42.266;23.122;2023-03-14T05:07:43;95228.34;;;0.11;59.86
7754;BME280;3921;42.266;23.122;2023-03-14T05:10:10;95433.44;;;1.47;60.08
7754;BME280;3921;42.266;23.122;2023-03-14T05:12:37;95449.81;;;2.02;58.35
7754;BME280;3921;42.266;23.122;2023-03-14T05:15:05;95422.31;;;1.63;59.38
7754;BME280;3921;42.266;23.122;2023-03-14T05:17:33;95735.81;;;3.58;60.01
7754;BME280;3921;42.266;23.122;2023-03-14T05:20:02;95519.94;;;2.30;59.64
7754;BME280;3921;42.266;23.122;2023-03-14T05:22:52;95762.78;;;3.77;59.68
7754;BME280;3921;42.266;23.122;2023-03-14T05:25:19;95176.94;;;0.28;59.57
7754;BME280;3921;42.266;23.122;2023-03-14T05:27:47;95655.09;;;3.42;59.01
7754;BME280;3921;42.266;23.122;2023-03-14T05:30:14;95641.88;;;3.43;58.96
7754;BME280;3921;42.266;23.122;2023-03-14T05:32:41;95597.00;;;3.02;58.33
7754;BME280;3921;42.266;23.122;2023-03-14T05:35:10;95519.09;;;2.62;58.73
7754;BME280;3921;42.266;23.122;2023-03-14T05:37:37;95457.28;;;2.05;58.83
7754;BME280;3921;42.266;23.122;2023-03-14T05:40:05;95413.97;;;1.90;58.72
7754;BME280;3921;42.266;23.122;2023-03-14T05:42:34;95426.06;;;2.12;58.08
7754;BME280;3921;42.266;23.122;2023-03-14T05:45:01;95173.63;;;0.57;58.11
7754;BME280;3921;42.266;23.122;2023-03-14T05:47:28;95685.19;;;3.89;58.08
7754;BME280;3921;42.266;23.122;2023-03-14T05:49:55;95275.84;;;1.16;58.58
7754;BME280;3921;42.266;23.122;2023-03-14T05:52:24;95674.84;;;3.72;58.89
7754;BME280;3921;42.266;23.122;2023-03-14T05:54:52;95397.44;;;1.90;58.95
7754;BME280;3921;42.266;23.122;2023-03-14T05:57:19;95263.34;;;1.12;59.05
7754;BME280;3921;42.266;23.122;2023-03-14T05:59:47;95768.84;;;4.23;59.21
7754;BME280;3921;42.266;23.122;2023-03-14T06:02:14;95566.38;;;3.02;59.06
7754;BME280;3921;42.266;23.122;2023-03-14T06:04:41;95367.25;;;2.05;58.89
7754;BME280;3921;42.266;23.122;2023-03-14T06:07:08;95371.75;;;2.20;58.69
7754;BME280;3921;42.266;23.122;2023-03-14T06:09:36;95356.63;;;2.09;59.05
7754;BME280;3921;42.266;23.122;2023-03-14T06:12:05;95541.94;;;3.17;59.08
7754;BME280;3921;42.266;23.122;2023-03-14T06:14:32;95643.75;;;3.88;59.29
7754;BME280;3921;42.266;23.122;2023-03-14T06:17:01;95549.44;;;3.20;59.75
7754;BME280;3921;42.266;23.122;2023-03-14T06:19:28;95518.84;;;3.21;58.42
7754;BME280;3921;42.266;23.122;2023-03-14T06:21:56;95460.75;;;2.77;58.70
7754;BME280;3921;42.266;23.122;2023-03-14T06:24:23;95632.84;;;3.83;59.19
7754;BME280;3921;42.266;23.122;2023-03-14T06:26:57;95211.31;;;1.42;59.26
7754;BME280;3921;42.266;23.122;2023-03-14T06:29:25;95628.19;;;3.96;59.68
7754;BME280;3921;42.266;23.122;2023-03-14T06:31:52;95626.72;;;4.05;59.51
7754;BME280;3921;42.266;23.122;2023-03-14T06:34:19;95432.63;;;2.76;58.55
7754;BME280;3921;42.266;23.122;2023-03-14T06:36:46;95682.16;;;4.40;57.56
7754;BME280;3921;42.266;23.122;2023-03-14T06:39:13;95261.97;;;1.89;58.24
7754;BME280;3921;42.266;23.122;2023-03-14T06:41:40;95318.22;;;2.28;58.78
7754;BME280;3921;42.266;23.122;2023-03-14T06:44:09;95355.94;;;2.51;58.41
7754;BME280;3921;42.266;23.122;2023-03-14T06:46:36;95366.50;;;2.80;58.20
7754;BME280;3921;42.266;23.122;2023-03-14T06:49:03;95668.53;;;4.62;57.95
7754;BME280;3921;42.266;23.122;2023-03-14T06:51:30;95220.50;;;1.82;57.58
7754;BME280;3921;42.266;23.122;2023-03-14T06:53:57;95299.81;;;2.54;57.48
7754;BME280;3921;42.266;23.122;2023-03-14T06:56:25;95252.66;;;2.15;57.63
7754;BME280;3921;42.266;23.122;2023-03-14T06:58:52;95214.41;;;2.04;58.15
7754;BME280;3921;42.266;23.122;2023-03-14T07:01:24;95586.69;;;4.35;57.65
7754;BME280;3921;42.266;23.122;2023-03-14T07:03:51;95203.88;;;2.12;57.82
7754;BME280;3921;42.266;23.122;2023-03-14T07:06:21;95663.59;;;5.10;57.68
7754;BME280;3921;42.266;23.122;2023-03-14T07:08:48;95612.63;;;4.90;57.86
7754;BME280;3921;42.266;23.122;2023-03-14T07:11:16;95625.28;;;5.02;58.06
7754;BME280;3921;42.266;23.122;2023-03-14T07:13:43;95464.38;;;4.10;57.92
7754;BME280;3921;42.266;23.122;2023-03-14T07:16:12;95575.75;;;5.17;57.73
7754;BME280;3921;42.266;23.122;2023-03-14T07:18:54;95508.41;;;4.60;58.24
7754;BME280;3921;42.266;23.122;2023-03-14T07:21:21;95631.88;;;5.48;58.08
7754;BME280;3921;42.266;23.122;2023-03-14T07:23:48;95368.06;;;4.00;58.53
7754;BME280;3921;42.266;23.122;2023-03-14T07:26:15;95489.81;;;4.89;58.41
7754;BME280;3921;42.266;23.122;2023-03-14T07:28:42;95585.53;;;5.58;58.85
7754;BME280;3921;42.266;23.122;2023-03-14T07:31:09;95405.34;;;4.48;58.75
7754;BME280;3921;42.266;23.122;2023-03-14T07:33:37;95238.16;;;3.60;58.32
7754;BME280;3921;42.266;23.122;2023-03-14T07:36:07;95073.75;;;2.78;58.41
7754;BME280;3921;42.266;23.122;2023-03-14T07:38:34;95563.28;;;5.73;58.35
7754;BME280;3921;42.266;23.122;2023-03-14T07:41:03;95548.47;;;5.84;58.73
7754;BME280;3921;42.266;23.122;2023-03-14T07:43:31;95593.66;;;6.02;57.76
7754;BME280;3921;42.266;23.122;2023-03-14T07:45:59;95640.03;;;6.53;57.60
7754;BME280;3921;42.266;23.122;2023-03-14T07:48:26;95494.28;;;5.71;57.12
7754;BME280;3921;42.266;23.122;2023-03-14T07:50:55;95420.88;;;5.47;56.23
7754;BME280;3921;42.266;23.122;2023-03-14T07:53:24;95331.38;;;4.94;55.98
7754;BME280;3921;42.266;23.122;2023-03-14T07:55:52;95289.66;;;4.79;55.81
7754;BME280;3921;42.266;23.122;2023-03-14T07:58:20;95530.00;;;6.32;55.83
7754;BME280;3921;42.266;23.122;2023-03-14T08:00:48;95384.50;;;5.62;54.75
7754;BME280;3921;42.266;23.122;2023-03-14T08:03:16;95655.81;;;7.24;54.98
7754;BME280;3921;42.266;23.122;2023-03-14T08:05:46;95510.94;;;6.38;54.65
7754;BME280;3921;42.266;23.122;2023-03-14T08:08:14;95516.88;;;6.51;55.02
7754;BME280;3921;42.266;23.122;2023-03-14T08:10:45;95434.06;;;6.05;54.75
7754;BME280;3921;42.266;23.122;2023-03-14T08:13:12;95103.03;;;4.11;54.20
7754;BME280;3921;42.266;23.122;2023-03-14T08:15:40;95153.88;;;4.32;54.03
7754;BME280;3921;42.266;23.122;2023-03-14T08:18:07;95463.44;;;6.32;53.75
7754;BME280;3921;42.266;23.122;2023-03-14T08:20:37;95544.72;;;6.89;53.34
7754;BME280;3921;42.266;23.122;2023-03-14T08:23:04;95475.44;;;6.65;52.84
7754;BME280;3921;42.266;23.122;2023-03-14T08:25:33;95487.97;;;6.72;52.57
7754;BME280;3921;42.266;23.122;2023-03-14T08:28:18;95113.53;;;4.57;52.19
7754;BME280;3921;42.266;23.122;2023-03-14T08:30:46;95462.06;;;6.63;51.93
7754;BME280;3921;42.266;23.122;2023-03-14T08:33:13;95372.69;;;6.24;51.82
7754;BME280;3921;42.266;23.122;2023-03-14T08:35:42;95261.53;;;5.59;51.66
7754;BME280;3921;42.266;23.122;2023-03-14T08:38:17;95214.63;;;5.19;50.92
7754;BME280;3921;42.266;23.122;2023-03-14T08:40:45;95108.75;;;4.72;50.31
7754;BME280;3921;42.266;23.122;2023-03-14T08:43:17;95077.81;;;4.52;49.89
7754;BME280;3921;42.266;23.122;2023-03-14T08:45:46;95102.22;;;4.87;49.79
7754;BME280;3921;42.266;23.122;2023-03-14T08:48:14;95294.47;;;6.16;50.11
7754;BME280;3921;42.266;23.122;2023-03-14T08:50:41;95482.66;;;7.43;49.33
7754;BME280;3921;42.266;23.122;2023-03-14T08:53:22;95500.22;;;7.55;49.47
7754;BME280;3921;42.266;23.122;2023-03-14T08:55:54;95429.97;;;7.11;49.38
7754;BME280;3921;42.266;23.122;2023-03-14T08:58:23;95309.66;;;6.47;49.47
7754;BME280;3921;42.266;23.122;2023-03-14T09:01:04;95090.13;;;5.23;49.02
7754;BME280;3921;42.266;23.122;2023-03-14T09:03:35;95409.28;;;7.29;48.95
7754;BME280;3921;42.266;23.122;2023-03-14T09:06:03;95436.88;;;7.47;48.74
7754;BME280;3921;42.266;23.122;2023-03-14T09:08:30;95079.47;;;5.40;48.86
7754;BME280;3921;42.266;23.122;2023-03-14T09:10:58;95083.75;;;5.57;49.37
7754;BME280;3921;42.266;23.122;2023-03-14T09:13:26;95565.81;;;8.68;49.12
7754;BME280;3921;42.266;23.122;2023-03-14T09:15:54;95375.25;;;7.60;49.39
7754;BME280;3921;42.266;23.122;2023-03-14T09:18:22;95509.03;;;8.55;49.60
7754;BME280;3921;42.266;23.122;2023-03-14T09:20:49;95067.38;;;5.93;49.59
7754;BME280;3921;42.266;23.122;2023-03-14T09:23:16;95330.25;;;7.66;50.15
7754;BME280;3921;42.266;23.122;2023-03-14T09:25:43;95356.16;;;7.94;50.07
7754;BME280;3921;42.266;23.122;2023-03-14T09:28:11;95354.53;;;8.10;50.11
7754;BME280;3921;42.266;23.122;2023-03-14T09:30:40;95395.47;;;8.48;49.96
7754;BME280;3921;42.266;23.122;2023-03-14T09:33:07;95475.69;;;8.77;49.99
7754;BME280;3921;42.266;23.122;2023-03-14T09:35:34;95260.25;;;7.69;49.82
7754;BME280;3921;42.266;23.122;2023-03-14T09:38:01;95065.19;;;6.71;50.09
7754;BME280;3921;42.266;23.122;2023-03-14T09:40:32;95461.47;;;9.30;49.54
7754;BME280;3921;42.266;23.122;2023-03-14T09:43:00;95209.41;;;7.88;49.30
7754;BME280;3921;42.266;23.122;2023-03-14T09:45:31;94948.59;;;6.36;49.04
7754;BME280;3921;42.266;23.122;2023-03-14T09:48:03;95125.22;;;7.43;49.23
7754;BME280;3921;42.266;23.122;2023-03-14T09:50:36;95351.19;;;9.04;49.43
7754;BME280;3921;42.266;23.122;2023-03-14T09:53:08;95111.88;;;7.64;49.50
7754;BME280;3921;42.266;23.122;2023-03-14T09:55:45;95138.50;;;7.91;49.64
7754;BME280;3921;42.266;23.122;2023-03-14T09:58:13;95152.72;;;7.98;49.35
7754;BME280;3921;42.266;23.122;2023-03-14T10:00:42;95131.84;;;8.10;49.15
7754;BME280;3921;42.266;23.122;2023-03-14T10:03:22;95409.44;;;9.84;48.95
7754;BME280;3921;42.266;23.122;2023-03-14T10:05:49;94884.59;;;6.68;48.97
7754;BME280;3921;42.266;23.122;2023-03-14T10:08:16;95361.06;;;9.59;49.25
7754;BME280;3921;42.266;23.122;2023-03-14T10:10:43;95285.94;;;9.33;49.71
7754;BME280;3921;42.266;23.122;2023-03-14T10:13:16;95277.53;;;9.46;49.21
7754;BME280;3921;42.266;23.122;2023-03-14T10:15:51;95316.56;;;9.93;48.50
7754;BME280;3921;42.266;23.122;2023-03-14T10:18:23;95423.22;;;10.66;48.72
7754;BME280;3921;42.266;23.122;2023-03-14T10:21:02;95130.69;;;8.99;49.38
7754;BME280;3921;42.266;23.122;2023-03-14T10:23:32;95308.78;;;10.34;48.79
7754;BME280;3921;42.266;23.122;2023-03-14T10:26:06;95305.25;;;10.54;48.33
7754;BME280;3921;42.266;23.122;2023-03-14T10:28:37;95067.03;;;9.26;47.54
7754;BME280;3921;42.266;23.122;2023-03-14T10:31:05;95204.28;;;10.17;46.84
7754;BME280;3921;42.266;23.122;2023-03-14T10:33:35;94878.88;;;8.49;46.65
7754;BME280;3921;42.266;23.122;2023-03-14T10:36:04;95177.06;;;10.61;45.92
7754;BME280;3921;42.266;23.122;2023-03-14T10:38:34;95364.91;;;11.98;44.85
7754;BME280;3921;42.266;23.122;2023-03-14T10:41:04;95388.22;;;12.12;44.33
7754;BME280;3921;42.266;23.122;2023-03-14T10:43:41;95078.53;;;10.36;43.79
7754;BME280;3921;42.266;23.122;2023-03-14T10:46:09;95275.31;;;11.83;43.94
7754;BME280;3921;42.266;23.122;2023-03-14T10:48:41;95016.50;;;10.43;43.97
7754;BME280;3921;42.266;23.122;2023-03-14T10:51:10;95091.97;;;11.02;42.99
7754;BME280;3921;42.266;23.122;2023-03-14T10:53:42;95160.91;;;11.47;43.16
7754;BME280;3921;42.266;23.122;2023-03-14T10:56:13;95188.16;;;11.75;43.37
7754;BME280;3921;42.266;23.122;2023-03-14T10:58:42;95226.50;;;11.93;43.39
7754;BME280;3921;42.266;23.122;2023-03-14T11:01:27;94947.88;;;10.43;43.60
7754;BME280;3921;42.266;23.122;2023-03-14T11:04:00;95067.41;;;11.19;43.26
7754;BME280;3921;42.266;23.122;2023-03-14T11:06:36;94866.41;;;10.00;43.68
7754;BME280;3921;42.266;23.122;2023-03-14T11:09:12;94996.34;;;11.08;43.70
7754;BME280;3921;42.266;23.122;2023-03-14T11:11:45;95265.31;;;12.82;43.44
7754;BME280;3921;42.266;23.122;2023-03-14T11:14:24;95122.91;;;12.15;44.30
7754;BME280;3921;42.266;23.122;2023-03-14T11:16:59;95116.88;;;12.23;44.78
7754;BME280;3921;42.266;23.122;2023-03-14T11:19:43;95016.94;;;11.79;45.18
7754;BME280;3921;42.266;23.122;2023-03-14T11:22:20;95167.56;;;12.96;43.37
7754;BME280;3921;42.266;23.122;2023-03-14T11:25:06;95084.28;;;12.59;42.39
7754;BME280;3921;42.266;23.122;2023-03-14T11:27:42;95214.88;;;13.67;41.60
7754;BME280;3921;42.266;23.122;2023-03-14T11:30:18;95224.69;;;13.79;41.49
7754;BME280;3921;42.266;23.122;2023-03-14T11:32:48;94816.22;;;11.49;41.81
7754;BME280;3921;42.266;23.122;2023-03-14T11:35:24;94882.13;;;12.08;41.61
7754;BME280;3921;42.266;23.122;2023-03-14T11:38:05;94892.13;;;12.12;43.37
7754;BME280;3921;42.266;23.122;2023-03-14T11:40:38;94864.09;;;12.28;42.24
7754;BME280;3921;42.266;23.122;2023-03-14T11:43:12;95040.16;;;13.54;42.01
7754;BME280;3921;42.266;23.122;2023-03-14T11:45:43;94711.94;;;11.62;41.00
7754;BME280;3921;42.266;23.122;2023-03-14T11:48:20;94698.09;;;11.81;40.32
7754;BME280;3921;42.266;23.122;2023-03-14T11:50:52;95034.81;;;13.98;38.79
7754;BME280;3921;42.266;23.122;2023-03-14T11:53:29;94840.50;;;13.00;38.04
7754;BME280;3921;42.266;23.122;2023-03-14T11:56:00;94774.84;;;13.03;37.23
7754;BME280;3921;42.266;23.122;2023-03-14T11:58:29;94906.78;;;14.01;36.68
7754;BME280;3921;42.266;23.122;2023-03-14T12:01:05;95149.81;;;15.91;37.13
7754;BME280;3921;42.266;23.122;2023-03-14T12:03:39;94672.56;;;13.24;36.92
7754;BME280;3921;42.266;23.122;2023-03-14T12:06:14;94782.06;;;14.32;36.88
7754;BME280;3921;42.266;23.122;2023-03-14T12:08:46;94645.94;;;13.70;37.29
7754;BME280;3921;42.266;23.122;2023-03-14T12:11:20;94707.66;;;14.14;37.09
7754;BME280;3921;42.266;23.122;2023-03-14T12:13:50;94972.56;;;15.88;36.90
7754;BME280;3921;42.266;23.122;2023-03-14T12:16:36;95101.19;;;16.80;36.26
7754;BME280;3921;42.266;23.122;2023-03-14T12:19:34;95016.97;;;16.24;36.84
7754;BME280;3921;42.266;23.122;2023-03-14T12:22:24;95026.78;;;16.33;36.37
7754;BME280;3921;42.266;23.122;2023-03-14T12:24:56;94635.22;;;14.15;36.79
7754;BME280;3921;42.266;23.122;2023-03-14T12:27:48;94711.09;;;14.65;35.86
7754;BME280;3921;42.266;23.122;2023-03-14T12:30:33;95060.31;;;16.88;36.12
7754;BME280;3921;42.266;23.122;2023-03-14T12:33:26;95017.66;;;16.76;35.77
7754;BME280;3921;42.266;23.122;2023-03-14T12:35:58;95087.97;;;17.39;35.58
7754;BME280;3921;42.266;23.122;2023-03-14T12:38:37;94985.50;;;16.98;35.75
7754;BME280;3921;42.266;23.122;2023-03-14T12:41:14;94867.66;;;16.61;35.05
7754;BME280;3921;42.266;23.122;2023-03-14T12:43:42;94911.38;;;16.90;34.25
7754;BME280;3921;42.266;23.122;2023-03-14T12:46:19;94982.22;;;17.59;33.85
7754;BME280;3921;42.266;23.122;2023-03-14T12:48:47;95032.16;;;18.21;31.86
7754;BME280;3921;42.266;23.122;2023-03-14T12:51:17;94909.38;;;17.59;29.12
7754;BME280;3921;42.266;23.122;2023-03-14T12:59:36;94967.09;;;18.54;27.24
7754;BME280;3921;42.266;23.122;2023-03-14T13:02:27;94590.19;;;16.46;26.53
7754;BME280;3921;42.266;23.122;2023-03-14T13:05:05;94811.25;;;17.96;25.93
7754;BME280;3921;42.266;23.122;2023-03-14T13:08:04;94859.41;;;18.54;26.12
7754;BME280;3921;42.266;23.122;2023-03-14T13:10:45;94642.22;;;17.32;25.90
7754;BME280;3921;42.266;23.122;2023-03-14T13:13:19;94648.25;;;17.30;25.76
7754;BME280;3921;42.266;23.122;2023-03-14T13:15:48;94742.38;;;18.19;26.53
7754;BME280;3921;42.266;23.122;2023-03-14T13:18:23;94702.00;;;17.94;26.09
7754;BME280;3921;42.266;23.122;2023-03-14T13:20:54;95002.53;;;19.68;26.56
7754;BME280;3921;42.266;23.122;2023-03-14T13:23:24;94843.91;;;18.77;26.59
7754;BME280;3921;42.266;23.122;2023-03-14T13:25:54;94538.75;;;16.82;26.64
7754;BME280;3921;42.266;23.122;2023-03-14T13:28:21;94934.91;;;19.26;26.83
7754;BME280;3921;42.266;23.122;2023-03-14T13:30:50;94701.03;;;17.80;26.76
7754;BME280;3921;42.266;23.122;2023-03-14T13:33:22;94804.56;;;18.48;26.12
7754;BME280;3921;42.266;23.122;2023-03-14T13:35:55;94878.50;;;18.99;26.54
7754;BME280;3921;42.266;23.122;2023-03-14T13:38:23;94884.22;;;19.21;26.21
7754;BME280;3921;42.266;23.122;2023-03-14T13:40:53;94528.31;;;16.88;26.23
7754;BME280;3921;42.266;23.122;2023-03-14T13:43:28;94542.34;;;17.14;26.68